createdAt,value
2016-03-21T00:00:25.879Z,1012.82
2016-03-21T00:01:25.897Z,1012.86
2016-03-21T00:02:25.900Z,1012.83
2016-03-21T00:03:25.919Z,1012.84
2016-03-21T00:04:25.906Z,1012.87
2016-03-21T00:05:25.908Z,1012.82
2016-03-21T00:06:25.926Z,1012.85
2016-03-21T00:07:25.930Z,1012.83
2016-03-21T00:08:25.932Z,1012.81
2016-03-21T00:09:25.935Z,1012.83
2016-03-21T00:10:25.938Z,1012.85
2016-03-21T00:11:25.955Z,1012.83
2016-03-21T00:12:25.958Z,1012.81
2016-03-21T00:13:25.961Z,1012.81
2016-03-21T00:14:25.963Z,1012.79
2016-03-21T00:15:25.982Z,1012.8
2016-03-21T00:16:25.985Z,1012.77
2016-03-21T00:17:25.987Z,1012.76
2016-03-21T00:18:25.990Z,1012.75
2016-03-21T00:19:25.993Z,1012.74
2016-03-21T00:20:26.012Z,1012.78
2016-03-21T00:21:26.015Z,1012.77
2016-03-21T00:22:26.017Z,1012.75
2016-03-21T00:23:26.035Z,1012.81
2016-03-21T00:24:26.022Z,1012.78
2016-03-21T00:25:26.040Z,1012.77
2016-03-21T00:26:26.042Z,1012.73
2016-03-21T00:27:26.046Z,1012.76
2016-03-21T00:28:26.048Z,1012.78
2016-03-21T00:29:26.067Z,1012.8
2016-03-21T00:30:26.069Z,1012.8
2016-03-21T00:31:26.087Z,1012.8
2016-03-21T00:32:26.075Z,1012.8
2016-03-21T00:33:26.078Z,1012.79
2016-03-21T00:34:26.095Z,1012.8
2016-03-21T00:35:26.098Z,1012.79
2016-03-21T00:36:26.100Z,1012.82
2016-03-21T00:37:26.103Z,1012.77
2016-03-21T00:38:26.122Z,1012.77
2016-03-21T00:39:26.125Z,1012.75
2016-03-21T00:40:26.128Z,1012.8
2016-03-21T00:41:26.146Z,1012.76
2016-03-21T00:42:26.133Z,1012.8
2016-03-21T00:43:26.135Z,1012.75
2016-03-21T00:44:26.154Z,1012.71
2016-03-21T00:45:26.157Z,1012.73
2016-03-21T00:46:26.159Z,1012.73
2016-03-21T00:47:26.177Z,1012.7
2016-03-21T00:48:26.180Z,1012.72
2016-03-21T00:49:26.183Z,1012.63
2016-03-21T00:50:26.185Z,1012.65
2016-03-21T00:51:26.188Z,1012.62
2016-03-21T00:52:26.190Z,1012.64
2016-03-21T00:53:26.209Z,1012.61
2016-03-21T00:54:26.212Z,1012.57
2016-03-21T00:55:26.215Z,1012.55
2016-03-21T00:56:26.249Z,1012.56
2016-03-21T00:57:26.220Z,1012.55
2016-03-21T00:58:26.239Z,1012.58
2016-03-21T00:59:26.242Z,1012.58
2016-03-21T01:00:26.244Z,1012.57
2016-03-21T01:01:26.247Z,1012.58
2016-03-21T01:02:26.264Z,1012.56
2016-03-21T01:03:26.267Z,1012.62
2016-03-21T01:04:26.270Z,1012.59
2016-03-21T01:05:26.289Z,1012.62
2016-03-21T01:06:26.291Z,1012.62
2016-03-21T01:07:26.294Z,1012.55
2016-03-21T01:08:26.297Z,1012.59
2016-03-21T01:09:26.299Z,1012.55
2016-03-21T01:10:26.302Z,1012.57
2016-03-21T01:11:26.320Z,1012.57
2016-03-21T01:12:26.322Z,1012.57
2016-03-21T01:13:26.325Z,1012.55
2016-03-21T01:14:26.328Z,1012.58
2016-03-21T01:15:26.330Z,1012.53
2016-03-21T01:16:26.349Z,1012.58
2016-03-21T01:17:26.352Z,1012.56
2016-03-21T01:18:26.355Z,1012.59
2016-03-21T01:19:26.357Z,1012.59
2016-03-21T01:20:26.360Z,1012.59
2016-03-21T01:21:26.379Z,1012.6
2016-03-21T01:22:26.413Z,1012.58
2016-03-21T01:23:26.384Z,1012.55
2016-03-21T01:24:26.386Z,1012.56
2016-03-21T01:25:26.390Z,1012.57
2016-03-21T01:26:26.407Z,1012.55
2016-03-21T01:27:26.410Z,1012.56
2016-03-21T01:28:26.413Z,1012.54
2016-03-21T01:29:26.415Z,1012.52
2016-03-21T01:30:26.418Z,1012.49
2016-03-21T01:31:26.437Z,1012.53
2016-03-21T01:32:26.440Z,1012.51
2016-03-21T01:33:26.442Z,1012.48
2016-03-21T01:34:26.445Z,1012.52
2016-03-21T01:35:26.448Z,1012.52
2016-03-21T01:36:26.466Z,1012.49
2016-03-21T01:37:26.469Z,1012.53
2016-03-21T01:38:26.472Z,1012.53
2016-03-21T01:39:26.474Z,1012.53
2016-03-21T01:40:26.492Z,1012.55
2016-03-21T01:41:26.495Z,1012.57
2016-03-21T01:42:26.497Z,1012.56
2016-03-21T01:43:26.500Z,1012.55
2016-03-21T01:44:26.503Z,1012.57
2016-03-21T01:45:26.521Z,1012.53
2016-03-21T01:46:26.524Z,1012.54
2016-03-21T01:47:26.542Z,1012.53
2016-03-21T01:48:26.529Z,1012.55
2016-03-21T01:49:26.532Z,1012.55
2016-03-21T01:50:26.550Z,1012.55
2016-03-21T01:51:26.553Z,1012.51
2016-03-21T01:52:26.556Z,1012.56
2016-03-21T01:53:26.575Z,1012.55
2016-03-21T01:54:26.561Z,1012.54
2016-03-21T01:55:26.580Z,1012.53
2016-03-21T01:56:26.583Z,1012.46
2016-03-21T01:57:26.585Z,1012.48
2016-03-21T01:58:26.588Z,1012.47
2016-03-21T01:59:26.591Z,1012.46
2016-03-21T02:00:26.609Z,1012.47
2016-03-21T02:01:26.611Z,1012.45
2016-03-21T02:02:26.615Z,1012.47
2016-03-21T02:03:26.617Z,1012.47
2016-03-21T02:04:26.635Z,1012.47
2016-03-21T02:05:26.637Z,1012.5
2016-03-21T02:06:26.640Z,1012.49
2016-03-21T02:07:26.643Z,1012.51
2016-03-21T02:08:26.645Z,1012.52
2016-03-21T02:09:26.665Z,1012.5
2016-03-21T02:10:26.667Z,1012.47
2016-03-21T02:11:26.669Z,1012.5
2016-03-21T02:12:26.672Z,1012.46
2016-03-21T02:13:26.675Z,1012.49
2016-03-21T02:14:26.694Z,1012.45
2016-03-21T02:15:26.697Z,1012.42
2016-03-21T02:16:26.700Z,1012.41
2016-03-21T02:17:26.702Z,1012.41
2016-03-21T02:18:26.704Z,1012.35
2016-03-21T02:19:26.723Z,1012.4
2016-03-21T02:20:26.725Z,1012.41
2016-03-21T02:21:26.728Z,1012.42
2016-03-21T02:22:26.730Z,1012.4
2016-03-21T02:23:26.749Z,1012.4
2016-03-21T02:24:26.752Z,1012.41
2016-03-21T02:25:26.754Z,1012.38
2016-03-21T02:26:26.757Z,1012.38
2016-03-21T02:27:26.760Z,1012.39
2016-03-21T02:28:26.762Z,1012.42
2016-03-21T02:29:26.780Z,1012.38
2016-03-21T02:30:26.782Z,1012.37
2016-03-21T02:31:26.786Z,1012.4
2016-03-21T02:32:26.788Z,1012.4
2016-03-21T02:33:26.806Z,1012.38
2016-03-21T02:34:26.809Z,1012.36
2016-03-21T02:35:26.812Z,1012.36
2016-03-21T02:36:26.815Z,1012.39
2016-03-21T02:37:26.818Z,1012.37
2016-03-21T02:38:26.821Z,1012.38
2016-03-21T02:39:26.839Z,1012.38
2016-03-21T02:40:26.841Z,1012.36
2016-03-21T02:41:26.845Z,1012.35
2016-03-21T02:42:26.847Z,1012.35
2016-03-21T02:43:26.850Z,1012.33
2016-03-21T02:44:26.867Z,1012.31
2016-03-21T02:45:26.870Z,1012.32
2016-03-21T02:46:26.873Z,1012.34
2016-03-21T02:47:26.875Z,1012.36
2016-03-21T02:48:26.879Z,1012.37
2016-03-21T02:49:26.897Z,1012.41
2016-03-21T02:50:26.900Z,1012.41
2016-03-21T02:51:26.902Z,1012.43
2016-03-21T02:52:26.905Z,1012.37
2016-03-21T02:53:26.908Z,1012.4
2016-03-21T02:54:26.926Z,1012.38
2016-03-21T02:55:26.929Z,1012.4
2016-03-21T02:56:26.931Z,1012.36
2016-03-21T02:57:26.935Z,1012.35
2016-03-21T02:58:26.937Z,1012.34
2016-03-21T02:59:26.955Z,1012.36
2016-03-21T03:00:27.349Z,1012.35
2016-03-21T03:01:26.960Z,1012.34
2016-03-21T03:02:26.963Z,1012.34
2016-03-21T03:03:26.966Z,1012.33
2016-03-21T03:04:26.985Z,1012.33
2016-03-21T03:05:26.987Z,1012.32
2016-03-21T03:06:26.989Z,1012.3
2016-03-21T03:07:26.992Z,1012.33
2016-03-21T03:08:26.994Z,1012.34
2016-03-21T03:09:26.996Z,1012.33
2016-03-21T03:10:27.000Z,1012.34
2016-03-21T03:11:27.017Z,1012.35
2016-03-21T03:12:27.020Z,1012.34
2016-03-21T03:13:27.022Z,1012.34
2016-03-21T03:14:27.025Z,1012.32
2016-03-21T03:15:27.028Z,1012.28
2016-03-21T03:16:27.047Z,1012.3
2016-03-21T03:17:27.049Z,1012.33
2016-03-21T03:18:27.051Z,1012.36
2016-03-21T03:19:27.055Z,1012.34
2016-03-21T03:20:27.073Z,1012.36
2016-03-21T03:21:27.076Z,1012.36
2016-03-21T03:22:27.079Z,1012.36
2016-03-21T03:23:27.081Z,1012.32
2016-03-21T03:24:27.084Z,1012.3
2016-03-21T03:25:27.086Z,1012.34
2016-03-21T03:26:27.090Z,1012.3
2016-03-21T03:27:27.107Z,1012.34
2016-03-21T03:28:27.109Z,1012.3
2016-03-21T03:29:27.112Z,1012.32
2016-03-21T03:30:27.115Z,1012.31
2016-03-21T03:31:27.118Z,1012.29
2016-03-21T03:32:27.137Z,1012.28
2016-03-21T03:33:27.140Z,1012.31
2016-03-21T03:34:27.142Z,1012.34
2016-03-21T03:35:27.145Z,1012.31
2016-03-21T03:36:27.163Z,1012.33
2016-03-21T03:37:27.166Z,1012.31
2016-03-21T03:38:27.169Z,1012.29
2016-03-21T03:39:27.171Z,1012.27
2016-03-21T03:40:27.174Z,1012.27
2016-03-21T03:41:27.176Z,1012.3
2016-03-21T03:42:27.195Z,1012.3
2016-03-21T03:43:27.213Z,1012.3
2016-03-21T03:44:27.200Z,1012.3
2016-03-21T03:45:27.203Z,1012.27
2016-03-21T03:46:27.221Z,1012.32
2016-03-21T03:47:27.224Z,1012.32
2016-03-21T03:48:27.227Z,1012.3
2016-03-21T03:49:27.230Z,1012.34
2016-03-21T03:50:27.232Z,1012.32
2016-03-21T03:51:27.249Z,1012.3
2016-03-21T03:52:27.252Z,1012.3
2016-03-21T03:53:27.255Z,1012.3
2016-03-21T03:54:27.257Z,1012.3
2016-03-21T03:55:27.261Z,1012.28
2016-03-21T03:56:27.279Z,1012.32
2016-03-21T03:57:27.282Z,1012.37
2016-03-21T03:58:27.284Z,1012.34
2016-03-21T03:59:27.287Z,1012.33
2016-03-21T04:00:27.290Z,1012.33
2016-03-21T04:01:27.308Z,1012.35
2016-03-21T04:02:27.311Z,1012.34
2016-03-21T04:03:27.314Z,1012.29
2016-03-21T04:04:27.317Z,1012.29
2016-03-21T04:05:27.319Z,1012.32
2016-03-21T04:06:27.322Z,1012.34
2016-03-21T04:07:27.340Z,1012.34
2016-03-21T04:08:27.342Z,1012.36
2016-03-21T04:09:27.345Z,1012.38
2016-03-21T04:10:27.347Z,1012.36
2016-03-21T04:11:27.351Z,1012.37
2016-03-21T04:12:27.369Z,1012.36
2016-03-21T04:13:27.372Z,1012.35
2016-03-21T04:14:27.374Z,1012.31
2016-03-21T04:15:27.377Z,1012.34
2016-03-21T04:16:27.380Z,1012.31
2016-03-21T04:17:27.398Z,1012.28
2016-03-21T04:18:27.402Z,1012.34
2016-03-21T04:19:27.404Z,1012.36
2016-03-21T04:20:27.406Z,1012.34
2016-03-21T04:21:27.424Z,1012.36
2016-03-21T04:22:27.427Z,1012.39
2016-03-21T04:23:27.430Z,1012.36
2016-03-21T04:24:27.432Z,1012.42
2016-03-21T04:25:27.435Z,1012.4
2016-03-21T04:26:27.454Z,1012.45
2016-03-21T04:27:27.456Z,1012.46
2016-03-21T04:28:27.459Z,1012.45
2016-03-21T04:29:27.462Z,1012.45
2016-03-21T04:30:27.464Z,1012.43
2016-03-21T04:31:27.498Z,1012.42
2016-03-21T04:32:27.484Z,1012.42
2016-03-21T04:33:27.488Z,1012.41
2016-03-21T04:34:27.490Z,1012.38
2016-03-21T04:35:27.509Z,1012.4
2016-03-21T04:36:27.511Z,1012.41
2016-03-21T04:37:27.514Z,1012.39
2016-03-21T04:38:27.517Z,1012.38
2016-03-21T04:39:27.519Z,1012.41
2016-03-21T04:40:27.523Z,1012.43
2016-03-21T04:41:27.525Z,1012.45
2016-03-21T04:42:27.544Z,1012.5
2016-03-21T04:43:27.546Z,1012.47
2016-03-21T04:44:27.549Z,1012.47
2016-03-21T04:45:27.552Z,1012.44
2016-03-21T04:46:27.554Z,1012.44
2016-03-21T04:47:27.572Z,1012.41
2016-03-21T04:48:27.575Z,1012.42
2016-03-21T04:49:27.578Z,1012.37
2016-03-21T04:50:27.580Z,1012.38
2016-03-21T04:51:27.583Z,1012.42
2016-03-21T04:52:27.586Z,1012.42
2016-03-21T04:53:27.604Z,1012.44
2016-03-21T04:54:27.607Z,1012.45
2016-03-21T04:55:27.609Z,1012.46
2016-03-21T04:56:27.628Z,1012.42
2016-03-21T04:57:27.631Z,1012.47
2016-03-21T04:58:27.633Z,1012.48
2016-03-21T04:59:27.636Z,1012.43
2016-03-21T05:00:27.998Z,1012.47
2016-03-21T05:01:27.642Z,1012.47
2016-03-21T05:02:27.659Z,1012.45
2016-03-21T05:03:27.663Z,1012.48
2016-03-21T05:04:27.665Z,1012.46
2016-03-21T05:05:27.667Z,1012.47
2016-03-21T05:06:27.687Z,1012.45
2016-03-21T05:07:27.689Z,1012.46
2016-03-21T05:08:27.692Z,1012.4
2016-03-21T05:09:27.694Z,1012.46
2016-03-21T05:10:27.697Z,1012.47
2016-03-21T05:11:27.715Z,1012.43
2016-03-21T05:12:27.703Z,1012.4
2016-03-21T05:13:27.720Z,1012.45
2016-03-21T05:14:27.723Z,1012.46
2016-03-21T05:15:27.725Z,1012.53
2016-03-21T05:16:27.728Z,1012.53
2016-03-21T05:17:27.730Z,1012.55
2016-03-21T05:18:27.750Z,1012.54
2016-03-21T05:19:27.752Z,1012.56
2016-03-21T05:20:27.754Z,1012.58
2016-03-21T05:21:27.757Z,1012.56
2016-03-21T05:22:27.760Z,1012.59
2016-03-21T05:23:27.779Z,1012.6
2016-03-21T05:24:27.796Z,1012.58
2016-03-21T05:25:27.785Z,1012.58
2016-03-21T05:26:27.787Z,1012.57
2016-03-21T05:27:27.789Z,1012.54
2016-03-21T05:28:27.807Z,1012.53
2016-03-21T05:29:27.810Z,1012.61
2016-03-21T05:30:27.813Z,1012.57
2016-03-21T05:31:27.815Z,1012.62
2016-03-21T05:32:27.818Z,1012.58
2016-03-21T05:33:27.821Z,1012.6
2016-03-21T05:34:27.840Z,1012.61
2016-03-21T05:35:27.842Z,1012.62
2016-03-21T05:36:27.845Z,1012.63
2016-03-21T05:37:27.848Z,1012.61
2016-03-21T05:38:27.866Z,1012.58
2016-03-21T05:39:27.869Z,1012.59
2016-03-21T05:40:27.872Z,1012.58
2016-03-21T05:41:27.889Z,1012.58
2016-03-21T05:42:27.892Z,1012.56
2016-03-21T05:43:27.894Z,1012.63
2016-03-21T05:44:27.883Z,1012.64
2016-03-21T05:45:27.900Z,1012.61
2016-03-21T05:46:27.903Z,1012.68
2016-03-21T05:47:27.905Z,1012.69
2016-03-21T05:48:27.909Z,1012.7
2016-03-21T05:49:27.911Z,1012.67
2016-03-21T05:50:27.929Z,1012.73
2016-03-21T05:51:27.933Z,1012.74
2016-03-21T05:52:27.935Z,1012.76
2016-03-21T05:53:27.953Z,1012.77
2016-03-21T05:54:27.955Z,1012.73
2016-03-21T05:55:27.958Z,1012.76
2016-03-21T05:56:27.961Z,1012.7
2016-03-21T05:57:27.963Z,1012.7
2016-03-21T05:58:27.966Z,1012.73
2016-03-21T05:59:27.969Z,1012.73
2016-03-21T06:00:27.987Z,1012.75
2016-03-21T06:01:27.990Z,1012.76
2016-03-21T06:02:27.992Z,1012.75
2016-03-21T06:03:28.012Z,1012.76
2016-03-21T06:04:27.998Z,1012.76
2016-03-21T06:05:28.017Z,1012.74
2016-03-21T06:06:28.019Z,1012.78
2016-03-21T06:07:28.022Z,1012.78
2016-03-21T06:08:28.025Z,1012.77
2016-03-21T06:09:28.027Z,1012.73
2016-03-21T06:10:28.046Z,1012.76
2016-03-21T06:11:28.048Z,1012.76
2016-03-21T06:12:28.051Z,1012.76
2016-03-21T06:13:28.053Z,1012.78
2016-03-21T06:14:28.056Z,1012.81
2016-03-21T06:15:28.075Z,1012.77
2016-03-21T06:16:28.077Z,1012.84
2016-03-21T06:17:28.080Z,1012.81
2016-03-21T06:18:28.083Z,1012.83
2016-03-21T06:19:28.085Z,1012.81
2016-03-21T06:20:28.166Z,1012.85
2016-03-21T06:21:28.107Z,1012.85
2016-03-21T06:22:28.110Z,1012.89
2016-03-21T06:23:28.112Z,1012.88
2016-03-21T06:24:28.115Z,1012.92
2016-03-21T06:25:28.118Z,1012.88
2016-03-21T06:26:28.136Z,1012.85
2016-03-21T06:27:28.138Z,1012.83
2016-03-21T06:28:28.140Z,1012.86
2016-03-21T06:29:28.175Z,1012.87
2016-03-21T06:30:28.146Z,1012.83
2016-03-21T06:31:28.165Z,1012.84
2016-03-21T06:32:28.168Z,1012.9
2016-03-21T06:33:28.170Z,1012.86
2016-03-21T06:34:28.173Z,1012.84
2016-03-21T06:35:28.206Z,1012.87
2016-03-21T06:36:28.178Z,1012.87
2016-03-21T06:37:28.196Z,1012.91
2016-03-21T06:38:28.199Z,1012.9
2016-03-21T06:39:28.217Z,1012.89
2016-03-21T06:40:28.220Z,1012.89
2016-03-21T06:41:28.223Z,1012.9
2016-03-21T06:42:28.225Z,1012.87
2016-03-21T06:43:28.228Z,1012.91
2016-03-21T06:44:28.231Z,1012.91
2016-03-21T06:45:28.233Z,1012.9
2016-03-21T06:46:28.236Z,1012.93
2016-03-21T06:47:28.255Z,1012.93
2016-03-21T06:48:28.258Z,1012.95
2016-03-21T06:49:28.260Z,1012.9
2016-03-21T06:50:28.263Z,1012.89
2016-03-21T06:51:28.266Z,1012.95
2016-03-21T06:52:28.284Z,1012.93
2016-03-21T06:53:28.286Z,1012.93
2016-03-21T06:54:28.289Z,1012.92
2016-03-21T06:55:28.292Z,1012.9
2016-03-21T06:56:28.310Z,1012.9
2016-03-21T06:57:28.312Z,1012.89
2016-03-21T06:58:28.316Z,1012.94
2016-03-21T06:59:28.318Z,1012.94
2016-03-21T07:00:28.337Z,1012.86
2016-03-21T07:01:28.354Z,1012.9
2016-03-21T07:02:28.342Z,1012.88
2016-03-21T07:03:28.345Z,1012.92
2016-03-21T07:04:28.347Z,1012.91
2016-03-21T07:05:28.351Z,1012.93
2016-03-21T07:06:28.353Z,1012.89
2016-03-21T07:07:28.362Z,1012.95
2016-03-21T07:08:28.365Z,1012.9
2016-03-21T07:09:28.368Z,1012.87
2016-03-21T07:10:28.387Z,1012.86
2016-03-21T07:11:28.389Z,1012.84
2016-03-21T07:12:28.392Z,1012.82
2016-03-21T07:13:28.395Z,1012.9
2016-03-21T07:14:28.397Z,1012.86
2016-03-21T07:15:28.416Z,1012.88
2016-03-21T07:16:28.418Z,1012.87
2016-03-21T07:17:28.422Z,1012.88
2016-03-21T07:18:28.424Z,1012.89
2016-03-21T07:19:28.427Z,1012.84
2016-03-21T07:20:28.445Z,1012.88
2016-03-21T07:21:28.447Z,1012.89
2016-03-21T07:22:28.450Z,1012.9
2016-03-21T07:23:28.452Z,1012.94
2016-03-21T07:24:28.456Z,1012.93
2016-03-21T07:25:28.474Z,1012.96
2016-03-21T07:26:28.476Z,1012.99
2016-03-21T07:27:28.479Z,1012.95
2016-03-21T07:28:28.482Z,1012.97
2016-03-21T07:29:28.485Z,1012.97
2016-03-21T07:30:28.502Z,1012.94
2016-03-21T07:31:28.506Z,1012.99
2016-03-21T07:32:28.524Z,1012.95
2016-03-21T07:33:28.510Z,1012.92
2016-03-21T07:34:28.513Z,1012.97
2016-03-21T07:35:28.532Z,1013.05
2016-03-21T07:36:28.534Z,1013.03
2016-03-21T07:37:28.537Z,1013.01
2016-03-21T07:38:28.540Z,1013.02
2016-03-21T07:39:28.559Z,1013.07
2016-03-21T07:40:28.561Z,1013.02
2016-03-21T07:41:28.564Z,1012.99
2016-03-21T07:42:28.582Z,1012.99
2016-03-21T07:43:28.569Z,1012.97
2016-03-21T07:44:28.572Z,1013.02
2016-03-21T07:45:28.582Z,1013.05
2016-03-21T07:46:28.571Z,1013.04
2016-03-21T07:47:28.559Z,1013.04
2016-03-21T07:48:28.549Z,1013.1
2016-03-21T07:49:28.553Z,1013.07
2016-03-21T07:50:28.548Z,1013.11
2016-03-21T07:51:28.545Z,1013.09
2016-03-21T07:52:28.542Z,1013.06
2016-03-21T07:53:28.541Z,1013.06
2016-03-21T07:54:28.554Z,1013.13
2016-03-21T07:55:28.553Z,1013.19
2016-03-21T07:56:28.554Z,1013.16
2016-03-21T07:57:28.555Z,1013.15
2016-03-21T07:58:28.570Z,1013.13
2016-03-21T07:59:28.571Z,1013.14
2016-03-21T08:00:28.573Z,1013.13
2016-03-21T08:01:28.575Z,1013.13
2016-03-21T08:02:28.593Z,1013.09
2016-03-21T08:03:28.595Z,1013.13
2016-03-21T08:04:28.597Z,1013.14
2016-03-21T08:05:28.599Z,1013.11
2016-03-21T08:06:28.616Z,1013.16
2016-03-21T08:07:28.620Z,1013.16
2016-03-21T08:08:28.622Z,1013.13
2016-03-21T08:09:28.625Z,1013.13
2016-03-21T08:10:28.643Z,1013.16
2016-03-21T08:11:28.646Z,1013.18
2016-03-21T08:12:28.649Z,1013.21
2016-03-21T08:13:28.651Z,1013.23
2016-03-21T08:14:28.671Z,1013.21
2016-03-21T08:15:28.673Z,1013.22
2016-03-21T08:16:28.675Z,1013.22
2016-03-21T08:17:28.678Z,1013.22
2016-03-21T08:18:28.696Z,1013.25
2016-03-21T08:19:28.699Z,1013.26
2016-03-21T08:20:28.701Z,1013.2
2016-03-21T08:21:28.720Z,1013.27
2016-03-21T08:22:28.723Z,1013.32
2016-03-21T08:23:28.725Z,1013.31
2016-03-21T08:24:28.728Z,1013.29
2016-03-21T08:25:28.731Z,1013.28
2016-03-21T08:26:28.750Z,1013.38
2016-03-21T08:27:28.752Z,1013.35
2016-03-21T08:28:28.755Z,1013.31
2016-03-21T08:29:28.757Z,1013.34
2016-03-21T08:30:28.775Z,1013.33
2016-03-21T08:31:28.777Z,1013.37
2016-03-21T08:32:28.781Z,1013.43
2016-03-21T08:33:28.799Z,1013.39
2016-03-21T08:34:28.802Z,1013.39
2016-03-21T08:35:28.805Z,1013.42
2016-03-21T08:36:28.808Z,1013.39
2016-03-21T08:37:28.810Z,1013.43
2016-03-21T08:38:28.827Z,1013.43
2016-03-21T08:39:28.831Z,1013.46
2016-03-21T08:40:28.833Z,1013.46
2016-03-21T08:41:28.852Z,1013.48
2016-03-21T08:42:28.854Z,1013.46
2016-03-21T08:43:28.857Z,1013.49
2016-03-21T08:44:28.860Z,1013.45
2016-03-21T08:45:28.878Z,1013.47
2016-03-21T08:46:28.882Z,1013.48
2016-03-21T08:47:28.884Z,1013.49
2016-03-21T08:48:28.887Z,1013.53
2016-03-21T08:49:28.904Z,1013.56
2016-03-21T08:50:28.907Z,1013.51
2016-03-21T08:51:28.910Z,1013.52
2016-03-21T08:52:28.928Z,1013.51
2016-03-21T08:53:28.931Z,1013.58
2016-03-21T08:54:28.934Z,1013.57
2016-03-21T08:55:28.936Z,1013.56
2016-03-21T08:56:28.956Z,1013.56
2016-03-21T08:57:28.958Z,1013.62
2016-03-21T08:58:28.961Z,1013.52
2016-03-21T08:59:28.963Z,1013.55
2016-03-21T09:00:28.981Z,1013.56
2016-03-21T09:01:28.984Z,1013.57
2016-03-21T09:02:28.986Z,1013.63
2016-03-21T09:03:28.989Z,1013.56
2016-03-21T09:04:29.007Z,1013.61
2016-03-21T09:05:29.010Z,1013.6
2016-03-21T09:06:29.013Z,1013.58
2016-03-21T09:07:29.016Z,1013.6
2016-03-21T09:08:29.034Z,1013.61
2016-03-21T09:09:29.036Z,1013.61
2016-03-21T09:10:29.039Z,1013.58
2016-03-21T09:11:29.058Z,1013.6
2016-03-21T09:12:29.060Z,1013.58
2016-03-21T09:13:29.062Z,1013.6
2016-03-21T09:14:29.073Z,1013.59
2016-03-21T09:15:29.075Z,1013.6
2016-03-21T09:16:29.078Z,1013.58
2016-03-21T09:17:29.096Z,1013.59
2016-03-21T09:18:29.100Z,1013.53
2016-03-21T09:19:29.102Z,1013.58
2016-03-21T09:20:29.104Z,1013.62
2016-03-21T09:21:29.122Z,1013.62
2016-03-21T09:22:29.125Z,1013.59
2016-03-21T09:23:29.127Z,1013.58
2016-03-21T09:24:29.147Z,1013.68
2016-03-21T09:25:29.149Z,1013.62
2016-03-21T09:26:29.152Z,1013.66
2016-03-21T09:27:29.169Z,1013.63
2016-03-21T09:28:29.172Z,1013.63
2016-03-21T09:29:29.175Z,1013.57
2016-03-21T09:30:29.177Z,1013.63
2016-03-21T09:31:29.196Z,1013.61
2016-03-21T09:32:29.199Z,1013.64
2016-03-21T09:33:29.201Z,1013.61
2016-03-21T09:34:29.205Z,1013.63
2016-03-21T09:35:29.223Z,1013.65
2016-03-21T09:36:29.226Z,1013.61
2016-03-21T09:37:29.228Z,1013.63
2016-03-21T09:38:29.246Z,1013.63
2016-03-21T09:39:29.249Z,1013.64
2016-03-21T09:40:29.251Z,1013.65
2016-03-21T09:41:29.270Z,1013.59
2016-03-21T09:42:29.272Z,1013.65
2016-03-21T09:43:29.275Z,1013.67
2016-03-21T09:44:29.278Z,1013.67
2016-03-21T09:45:29.297Z,1013.65
2016-03-21T09:46:29.300Z,1013.7
2016-03-21T09:47:29.302Z,1013.63
2016-03-21T09:48:29.320Z,1013.69
2016-03-21T09:49:29.323Z,1013.66
2016-03-21T09:50:29.325Z,1013.72
2016-03-21T09:51:29.328Z,1013.69
2016-03-21T09:52:29.347Z,1013.69
2016-03-21T09:53:29.365Z,1013.67
2016-03-21T09:54:29.352Z,1013.67
2016-03-21T09:55:29.355Z,1013.67
2016-03-21T09:56:29.372Z,1013.73
2016-03-21T09:57:29.375Z,1013.65
2016-03-21T09:58:29.377Z,1013.6
2016-03-21T09:59:29.397Z,1013.6
2016-03-21T10:00:29.399Z,1013.62
2016-03-21T10:01:29.401Z,1013.64
2016-03-21T10:02:29.404Z,1013.6
2016-03-21T10:03:29.438Z,1013.59
2016-03-21T10:04:29.426Z,1013.58
2016-03-21T10:05:29.428Z,1013.63
2016-03-21T10:06:29.447Z,1013.66
2016-03-21T10:07:29.450Z,1013.67
2016-03-21T10:08:29.452Z,1013.64
2016-03-21T10:09:29.456Z,1013.68
2016-03-21T10:10:29.474Z,1013.63
2016-03-21T10:11:29.477Z,1013.6
2016-03-21T10:12:29.479Z,1013.7
2016-03-21T10:13:29.482Z,1013.68
2016-03-21T10:14:29.500Z,1013.72
2016-03-21T10:15:38.503Z,1013.75
2016-03-21T10:16:29.506Z,1013.79
2016-03-21T10:17:29.509Z,1013.83
2016-03-21T10:18:29.526Z,1013.84
2016-03-21T10:19:29.529Z,1013.87
2016-03-21T10:20:29.532Z,1013.98
2016-03-21T10:21:29.551Z,1014
2016-03-21T10:22:29.553Z,1013.99
2016-03-21T10:23:29.556Z,1013.96
2016-03-21T10:24:29.559Z,1013.96
2016-03-21T10:25:29.577Z,1013.98
2016-03-21T10:26:29.579Z,1013.96
2016-03-21T10:27:29.582Z,1013.99
2016-03-21T10:28:29.600Z,1013.95
2016-03-21T10:29:29.603Z,1014
2016-03-21T10:30:29.605Z,1013.97
2016-03-21T10:31:29.608Z,1013.97
2016-03-21T10:32:29.627Z,1013.95
2016-03-21T10:33:29.629Z,1013.94
2016-03-21T10:34:29.633Z,1013.91
2016-03-21T10:35:29.650Z,1013.91
2016-03-21T10:36:29.653Z,1013.86
2016-03-21T10:37:29.656Z,1013.87
2016-03-21T10:38:29.658Z,1013.83
2016-03-21T10:39:29.677Z,1013.85
2016-03-21T10:40:29.680Z,1013.8
2016-03-21T10:41:29.683Z,1013.78
2016-03-21T10:42:29.685Z,1013.74
2016-03-21T10:43:29.703Z,1013.74
2016-03-21T10:44:29.706Z,1013.75
2016-03-21T10:45:29.709Z,1013.85
2016-03-21T10:46:29.712Z,1013.81
2016-03-21T10:47:29.730Z,1013.8
2016-03-21T10:48:29.732Z,1013.81
2016-03-21T10:49:29.735Z,1013.79
2016-03-21T10:50:29.753Z,1013.83
2016-03-21T10:51:29.757Z,1013.79
2016-03-21T10:52:29.774Z,1013.8
2016-03-21T10:53:29.776Z,1013.78
2016-03-21T10:54:29.779Z,1013.79
2016-03-21T10:55:29.782Z,1013.75
2016-03-21T10:56:29.784Z,1013.76
2016-03-21T10:57:29.835Z,1013.77
2016-03-21T10:58:29.806Z,1013.72
2016-03-21T10:59:29.809Z,1013.71
2016-03-21T11:00:29.811Z,1013.71
2016-03-21T11:01:29.830Z,1013.71
2016-03-21T11:02:29.833Z,1013.7
2016-03-21T11:03:29.835Z,1013.66
2016-03-21T11:04:29.853Z,1013.64
2016-03-21T11:05:29.856Z,1013.68
2016-03-21T11:06:29.866Z,1013.65
2016-03-21T11:07:29.869Z,1013.6
2016-03-21T11:08:29.919Z,1013.6
2016-03-21T11:09:29.875Z,1013.56
2016-03-21T11:10:29.894Z,1013.55
2016-03-21T11:11:29.912Z,1013.57
2016-03-21T11:12:29.899Z,1013.53
2016-03-21T11:13:29.902Z,1013.5
2016-03-21T11:14:29.919Z,1013.48
2016-03-21T11:15:29.922Z,1013.43
2016-03-21T11:16:29.925Z,1013.38
2016-03-21T11:17:29.943Z,1013.42
2016-03-21T11:18:29.945Z,1013.35
2016-03-21T11:19:29.949Z,1013.39
2016-03-21T11:20:29.951Z,1013.42
2016-03-21T11:21:29.970Z,1013.43
2016-03-21T11:22:29.973Z,1013.5
2016-03-21T11:23:29.975Z,1013.44
2016-03-21T11:24:29.978Z,1013.36
2016-03-21T11:25:29.996Z,1013.47
2016-03-21T11:26:29.999Z,1013.44
2016-03-21T11:27:30.001Z,1013.43
2016-03-21T11:28:30.019Z,1013.41
2016-03-21T11:29:30.023Z,1013.38
2016-03-21T11:30:30.025Z,1013.42
2016-03-21T11:31:30.087Z,1013.41
2016-03-21T11:32:30.076Z,1013.35
2016-03-21T11:33:30.048Z,1013.39
2016-03-21T11:34:30.077Z,1013.39
2016-03-21T11:35:30.057Z,1013.41
2016-03-21T11:36:30.077Z,1013.39
2016-03-21T11:37:30.063Z,1013.34
2016-03-21T11:38:30.082Z,1013.33
2016-03-21T11:39:30.084Z,1013.33
2016-03-21T11:40:30.087Z,1013.37
2016-03-21T11:41:30.105Z,1013.36
2016-03-21T11:42:30.109Z,1013.35
2016-03-21T11:43:30.111Z,1013.32
2016-03-21T11:44:30.114Z,1013.33
2016-03-21T11:45:30.131Z,1013.3
2016-03-21T11:46:30.134Z,1013.34
2016-03-21T11:47:30.137Z,1013.33
2016-03-21T11:48:30.139Z,1013.33
2016-03-21T11:49:30.158Z,1013.39
2016-03-21T11:50:30.161Z,1013.33
2016-03-21T11:51:30.163Z,1013.32
2016-03-21T11:52:30.182Z,1013.34
2016-03-21T11:53:30.185Z,1013.3
2016-03-21T11:54:30.187Z,1013.35
2016-03-21T11:55:30.190Z,1013.35
2016-03-21T11:56:30.208Z,1013.32
2016-03-21T11:57:30.211Z,1013.34
2016-03-21T11:58:30.213Z,1013.36
2016-03-21T11:59:30.232Z,1013.35
2016-03-21T12:00:30.235Z,1013.33
2016-03-21T12:01:30.237Z,1013.33
2016-03-21T12:02:30.241Z,1013.34
2016-03-21T12:03:30.258Z,1013.32
2016-03-21T12:04:30.260Z,1013.36
2016-03-21T12:05:30.263Z,1013.35
2016-03-21T12:06:30.266Z,1013.35
2016-03-21T12:07:30.319Z,1013.37
2016-03-21T12:08:30.292Z,1013.33